Time;durP1;ratioP1;P1;durP2;ratioP2;P2;SDS_P1;SDS_P2;PMS_P1;PMS_P2;Temp;Humidity;BMP_temperature;BMP_pressure;BME280_temperature;BME280_humidity;BME280_pressure;Samples;Min_cycle;Max_cycle;Signal;HPM_P1;HPM_P2
2022/01/21 01:19:52;;;;;;;1001.00;419.67;;;2.10;99.90;;;;;;5328793;23;20089;-85
2022/01/21 01:21:10;;;;;;;986.85;407.38;;;2.20;99.90;;;;;;4969645;28;20436;-84
2022/01/21 01:24:00;;;;;;;991.20;410.58;;;2.20;99.90;;;;;;4969657;28;20050;-85
2022/01/21 01:29:08;;;;;;;988.15;406.52;;;2.20;99.90;;;;;;4988109;28;20173;-84
2022/01/21 01:31:36;;;;;;;987.75;408.48;;;2.20;99.90;;;;;;4976298;28;20472;-83
2022/01/21 01:34:03;;;;;;;998.92;424.73;;;2.30;99.90;;;;;;4951460;28;20340;-83
2022/01/21 01:36:29;;;;;;;991.25;412.70;;;2.20;99.90;;;;;;4950327;28;20047;-82
2022/01/21 01:41:26;;;;;;;987.30;406.83;;;2.20;99.90;;;;;;4962766;28;20365;-82
2022/01/21 01:49:41;;;;;;;982.88;401.63;;;2.10;99.90;;;;;;4921240;29;20126;-82
2022/01/21 01:52:13;;;;;;;991.30;411.05;;;2.10;99.90;;;;;;4970198;28;20138;-83
2022/01/21 01:54:45;;;;;;;984.05;402.30;;;2.00;99.90;;;;;;4969373;28;20054;-83
2022/01/21 01:57:11;;;;;;;989.45;408.00;;;2.00;99.90;;;;;;4952797;28;20035;-83
2022/01/21 01:59:37;;;;;;;993.78;414.15;;;2.00;99.90;;;;;;4961080;28;20043;-81
2022/01/21 02:02:05;;;;;;;1000.67;412.48;;;2.00;99.90;;;;;;4964383;28;20066;-80
2022/01/21 02:04:31;;;;;;;1001.65;417.92;;;2.00;99.90;;;;;;4983901;28;20145;-80
2022/01/21 02:06:57;;;;;;;996.67;414.98;;;2.00;99.90;;;;;;4981721;28;20058;-81
2022/01/21 02:09:24;;;;;;;996.03;416.27;;;2.00;99.90;;;;;;4976324;28;20058;-81
2022/01/21 02:11:49;;;;;;;977.20;402.27;;;2.00;99.90;;;;;;4970233;28;20054;-82
2022/01/21 02:14:22;;;;;;;986.10;412.98;;;1.90;99.90;;;;;;4973066;28;20051;-83
2022/01/21 02:22:18;;;;;;;980.42;406.23;;;1.70;99.90;;;;;;4968094;28;20050;-83
2022/01/21 02:24:51;;;;;;;975.38;402.85;;;1.70;99.90;;;;;;4968004;28;20054;-83
2022/01/21 02:27:17;;;;;;;974.72;403.90;;;1.60;99.90;;;;;;4963222;28;20054;-83
2022/01/21 02:29:48;;;;;;;973.20;401.85;;;1.60;99.90;;;;;;4968326;28;20046;-83
2022/01/21 02:32:16;;;;;;;975.35;403.10;;;1.60;99.90;;;;;;4968252;28;20078;-84
2022/01/21 02:34:43;;;;;;;971.47;399.15;;;1.60;99.90;;;;;;4967324;28;20046;-83
2022/01/21 02:37:10;;;;;;;979.42;410.00;;;1.50;99.90;;;;;;4967456;28;20043;-84
2022/01/21 02:39:36;;;;;;;981.53;408.85;;;1.50;99.90;;;;;;4965524;28;20074;-84
2022/01/21 02:42:02;;;;;;;978.22;407.42;;;1.50;99.90;;;;;;4968280;28;20069;-83
2022/01/21 02:44:28;;;;;;;985.92;416.13;;;1.50;99.90;;;;;;4967277;28;20436;-83
2022/01/21 02:46:59;;;;;;;986.20;411.00;;;1.50;99.90;;;;;;4969052;28;20129;-83
2022/01/21 02:49:26;;;;;;;980.90;407.58;;;1.50;99.90;;;;;;4960799;28;20129;-83
2022/01/21 02:51:54;;;;;;;980.55;408.73;;;1.60;99.90;;;;;;4966771;28;20038;-83
2022/01/21 02:54:20;;;;;;;985.58;410.00;;;1.50;99.90;;;;;;4967839;28;20042;-82
2022/01/21 02:56:46;;;;;;;995.70;420.52;;;1.50;99.90;;;;;;4968423;28;20406;-84
2022/01/21 02:59:12;;;;;;;994.42;413.25;;;1.60;99.90;;;;;;4962449;28;20043;-83
2022/01/21 03:01:40;;;;;;;999.90;421.75;;;1.60;99.90;;;;;;4965251;28;20138;-83
2022/01/21 03:04:07;;;;;;;1002.53;421.80;;;1.70;99.90;;;;;;4938747;28;20053;-84
2022/01/21 03:06:35;;;;;;;990.03;409.58;;;1.70;99.90;;;;;;4967691;28;20035;-85
2022/01/21 03:09:01;;;;;;;1000.40;420.73;;;1.70;99.90;;;;;;4967901;28;20623;-86
2022/01/21 03:11:28;;;;;;;1000.15;413.63;;;1.80;99.90;;;;;;4968570;28;20149;-84
2022/01/21 03:13:54;;;;;;;1005.35;424.08;;;1.80;99.90;;;;;;4966443;28;20391;-84
2022/01/21 03:16:20;;;;;;;1001.80;418.45;;;1.80;99.90;;;;;;4960915;28;20058;-82
2022/01/21 03:18:46;;;;;;;1001.83;418.73;;;1.90;99.90;;;;;;4969345;28;20043;-81
2022/01/21 03:21:16;;;;;;;1011.88;430.35;;;1.80;99.90;;;;;;4961683;28;20104;-84
2022/01/21 03:23:53;;;;;;;998.67;417.40;;;1.90;99.90;;;;;;4972200;28;20507;-82
2022/01/21 03:26:22;;;;;;;1006.95;428.92;;;1.90;99.90;;;;;;4972532;28;20046;-82
2022/01/21 03:28:50;;;;;;;999.03;416.38;;;2.00;99.90;;;;;;4970908;28;20047;-83
2022/01/21 03:31:16;;;;;;;1002.45;421.98;;;2.00;99.90;;;;;;4973104;28;20395;-82
2022/01/21 03:33:42;;;;;;;1007.45;426.65;;;2.00;99.90;;;;;;4971547;28;20039;-83
2022/01/21 03:36:09;;;;;;;1018.25;437.65;;;2.00;99.90;;;;;;4970104;28;20051;-83
2022/01/21 03:38:35;;;;;;;1014.42;431.00;;;2.00;99.90;;;;;;4957611;28;20083;-83
2022/01/21 03:41:01;;;;;;;1001.67;414.52;;;1.90;99.90;;;;;;4972118;28;20117;-84
2022/01/21 03:43:26;;;;;;;1011.08;428.33;;;1.90;99.90;;;;;;4971265;28;20042;-84
2022/01/21 03:45:52;;;;;;;1008.00;422.80;;;1.90;99.90;;;;;;4971972;28;20182;-83
2022/01/21 03:48:19;;;;;;;1004.65;419.13;;;1.90;99.90;;;;;;4973901;28;20738;-84
2022/01/21 03:50:45;;;;;;;998.13;414.15;;;1.80;99.90;;;;;;4972167;28;20167;-84
2022/01/21 03:53:11;;;;;;;996.00;413.35;;;1.80;99.90;;;;;;4971816;28;20090;-84
2022/01/21 03:55:38;;;;;;;999.67;417.58;;;1.80;99.90;;;;;;4975651;28;20100;-84
2022/01/21 03:58:05;;;;;;;991.85;406.92;;;1.70;99.90;;;;;;4972268;28;20142;-84
2022/01/21 04:00:38;;;;;;;993.88;413.70;;;1.70;99.90;;;;;;4971528;28;20130;-84
2022/01/21 04:03:04;;;;;;;998.38;417.95;;;1.70;99.90;;;;;;4970967;28;20050;-84
2022/01/21 04:05:30;;;;;;;990.33;405.50;;;1.70;99.90;;;;;;4972138;28;20435;-84
2022/01/21 04:07:59;;;;;;;991.95;414.83;;;1.70;99.90;;;;;;4971191;28;20050;-83
2022/01/21 04:10:25;;;;;;;994.72;411.88;;;1.70;99.90;;;;;;4970819;28;20047;-82
2022/01/21 04:12:51;;;;;;;993.20;412.33;;;1.70;99.90;;;;;;4978684;28;20072;-83
2022/01/21 04:15:16;;;;;;;1296.43;437.05;;;1.70;99.90;;;;;;4970803;28;20431;-81
2022/01/21 04:17:42;;;;;;;987.95;406.65;;;1.80;99.90;;;;;;4970735;28;20254;-81
2022/01/21 04:20:10;;;;;;;995.45;415.48;;;1.80;99.90;;;;;;4987562;28;20038;-82
2022/01/21 04:22:36;;;;;;;992.65;412.35;;;1.70;99.90;;;;;;4958418;28;20044;-83
2022/01/21 04:25:03;;;;;;;993.22;411.48;;;1.70;99.90;;;;;;4962150;28;20131;-82
2022/01/21 04:27:28;;;;;;;999.72;419.05;;;2.40;99.90;;;;;;4966564;28;20485;-82
2022/01/21 04:29:54;;;;;;;998.78;423.05;;;1.60;99.90;;;;;;4970538;28;20137;-83
2022/01/21 04:32:20;;;;;;;988.90;409.63;;;1.60;99.90;;;;;;4971720;28;20074;-83
2022/01/21 04:34:45;;;;;;;992.80;413.40;;;1.60;99.90;;;;;;4971060;28;20367;-83
2022/01/21 04:37:14;;;;;;;984.05;407.92;;;1.60;99.90;;;;;;4970055;28;20398;-81
2022/01/21 04:39:47;;;;;;;987.33;410.00;;;1.60;99.90;;;;;;4968304;28;20410;-82
2022/01/21 04:47:34;;;;;;;974.30;403.50;;;1.40;99.90;;;;;;4970826;28;19973;-83
2022/01/21 04:50:00;;;;;;;978.70;405.65;;;1.40;99.90;;;;;;4970651;28;20038;-83
2022/01/21 04:52:26;;;;;;;973.58;400.65;;;1.30;99.90;;;;;;4970574;28;20442;-83
2022/01/21 04:54:52;;;;;;;982.03;408.08;;;1.30;99.90;;;;;;4967596;28;20039;-83
2022/01/21 04:57:19;;;;;;;984.92;416.48;;;1.20;99.90;;;;;;4963843;28;20062;-83
2022/01/21 04:59:45;;;;;;;975.53;403.05;;;1.20;99.90;;;;;;4969396;28;20063;-83
2022/01/21 05:02:11;;;;;;;980.13;407.88;;;1.20;99.90;;;;;;4975755;28;20085;-83
2022/01/21 05:04:37;;;;;;;981.92;407.45;;;1.30;99.90;;;;;;4972105;28;20079;-83
2022/01/21 05:07:06;;;;;;;981.97;407.27;;;1.30;99.90;;;;;;4970486;28;20047;-83
2022/01/21 05:09:34;;;;;;;989.13;410.77;;;1.30;99.90;;;;;;4969963;28;20138;-83
2022/01/21 05:12:07;;;;;;;983.95;408.95;;;1.30;99.90;;;;;;4968218;28;20047;-83
2022/01/21 05:15:14;;;;;;;982.92;404.67;;;1.30;99.90;;;;;;4969870;28;20138;-82
2022/01/21 05:17:26;;;;;;;;;;;1.30;99.90;;;;;;4968339;28;20042;-84
2022/01/21 05:19:53;;;;;;;982.42;409.00;;;1.30;99.90;;;;;;4969978;28;19989;-87
2022/01/21 05:22:18;;;;;;;989.70;416.77;;;1.30;99.90;;;;;;4970528;28;20105;-82
2022/01/21 05:24:44;;;;;;;996.25;418.70;;;1.40;99.90;;;;;;4970358;28;20046;-85
2022/01/21 05:27:12;;;;;;;1008.95;430.02;;;1.40;99.90;;;;;;4970977;28;20046;-84
2022/01/21 05:29:39;;;;;;;998.97;420.10;;;1.50;99.90;;;;;;4969963;28;20039;-86
2022/01/21 05:32:06;;;;;;;1028.75;438.17;;;1.50;99.90;;;;;;4976399;28;20038;-83
2022/01/21 05:34:32;;;;;;;1017.20;427.77;;;1.60;99.90;;;;;;4980844;28;20074;-83
2022/01/21 05:36:57;;;;;;;1015.72;429.50;;;1.60;99.90;;;;;;4972988;28;20049;-83
2022/01/21 05:39:23;;;;;;;1011.22;429.60;;;1.70;99.90;;;;;;4970354;28;20414;-83
2022/01/21 05:41:52;;;;;;;1010.70;422.17;;;1.70;99.90;;;;;;4967731;28;20058;-85
2022/01/21 05:47:11;;;;;;;1024.35;439.95;;;1.70;99.90;;;;;;4966233;28;20050;-83
2022/01/21 05:49:37;;;;;;;1004.90;421.27;;;1.80;99.90;;;;;;4989244;28;20081;-84
2022/01/21 05:52:15;;;;;;;1017.25;429.10;;;1.80;99.90;;;;;;4978293;28;20121;-86
2022/01/21 05:54:43;;;;;;;1005.60;422.55;;;1.80;99.90;;;;;;4960020;28;20049;-82
2022/01/21 05:57:11;;;;;;;1019.13;427.73;;;1.90;99.90;;;;;;4958882;28;20038;-81
2022/01/21 05:59:37;;;;;;;1020.65;433.67;;;1.90;99.90;;;;;;4968887;28;20090;-82
2022/01/21 06:02:05;;;;;;;1020.30;433.10;;;2.00;99.90;;;;;;4974709;28;20864;-84
2022/01/21 06:04:36;;;;;;;1005.05;420.58;;;2.00;99.90;;;;;;4969544;28;20145;-81
2022/01/21 06:07:04;;;;;;;1002.15;418.05;;;2.10;99.90;;;;;;4968767;28;20081;-82
2022/01/21 06:09:30;;;;;;;999.13;416.10;;;2.60;99.90;;;;;;4959415;28;20486;-82
2022/01/21 06:11:56;;;;;;;1012.00;430.23;;;2.10;99.90;;;;;;4968300;28;20053;-81
2022/01/21 06:14:24;;;;;;;1001.90;419.35;;;2.00;99.90;;;;;;4977828;28;20097;-82
2022/01/21 06:16:50;;;;;;;1017.10;430.42;;;2.00;99.90;;;;;;4974033;28;20066;-81
2022/01/21 06:19:18;;;;;;;1023.22;437.35;;;2.00;99.90;;;;;;4971227;28;20055;-82
2022/01/21 06:21:44;;;;;;;1013.20;432.48;;;2.00;99.90;;;;;;4988754;28;20129;-83
2022/01/21 06:24:09;;;;;;;1033.95;433.98;;;2.00;99.90;;;;;;4989074;28;20114;-85
2022/01/21 06:26:36;;;;;;;1018.60;432.30;;;2.00;99.90;;;;;;4969982;28;20458;-85
2022/01/21 06:29:03;;;;;;;1018.83;428.65;;;2.00;99.90;;;;;;4968685;28;20051;-84
2022/01/21 06:31:29;;;;;;;1002.58;413.92;;;2.10;99.90;;;;;;4968715;28;20093;-84
2022/01/21 06:33:54;;;;;;;1020.08;432.80;;;2.10;99.90;;;;;;4967593;28;20038;-82
2022/01/21 06:36:20;;;;;;;1011.00;425.15;;;2.10;99.90;;;;;;4966508;28;20051;-85
2022/01/21 06:38:46;;;;;;;1002.05;414.67;;;2.20;99.90;;;;;;4965656;28;20425;-83
2022/01/21 06:41:12;;;;;;;1022.83;437.20;;;2.20;99.90;;;;;;4960111;28;20089;-88
2022/01/21 06:43:38;;;;;;;1037.50;453.05;;;2.20;99.90;;;;;;4964582;28;20101;-84
2022/01/21 06:46:04;;;;;;;1018.45;431.15;;;2.20;99.90;;;;;;4968829;28;20138;-83
2022/01/21 06:48:29;;;;;;;1024.32;429.17;;;2.20;99.90;;;;;;4968208;28;20094;-84
2022/01/21 06:50:55;;;;;;;1026.65;432.15;;;2.20;99.90;;;;;;4967851;28;20070;-85
2022/01/21 06:53:21;;;;;;;1036.32;443.95;;;2.20;99.90;;;;;;4967717;28;20077;-83
2022/01/21 06:55:47;;;;;;;1014.97;430.38;;;2.20;99.90;;;;;;4967741;28;20055;-84
2022/01/21 06:58:13;;;;;;;1010.70;420.65;;;2.30;99.90;;;;;;4957257;28;20074;-84
2022/01/21 07:00:39;;;;;;;1005.05;414.73;;;2.20;99.90;;;;;;4972036;28;20406;-84
2022/01/21 07:03:04;;;;;;;1012.88;426.35;;;2.20;99.90;;;;;;4963568;28;20039;-84
2022/01/21 07:05:30;;;;;;;1021.60;428.50;;;2.20;99.90;;;;;;4966253;28;20041;-84
2022/01/21 07:07:58;;;;;;;1026.00;435.45;;;2.20;99.90;;;;;;4962226;28;20051;-84
2022/01/21 07:10:25;;;;;;;1017.78;428.45;;;2.20;99.90;;;;;;4958384;28;20115;-84
2022/01/21 07:12:50;;;;;;;1011.70;424.05;;;2.10;99.90;;;;;;4961287;28;20051;-84
2022/01/21 07:15:18;;;;;;;1010.97;420.85;;;2.10;99.90;;;;;;4967329;28;20116;-84
2022/01/21 07:17:44;;;;;;;1009.35;421.92;;;2.10;99.90;;;;;;4968722;28;20062;-83
2022/01/21 07:20:10;;;;;;;1015.45;426.15;;;2.00;99.90;;;;;;4967336;28;20038;-85
2022/01/21 07:22:36;;;;;;;1015.15;428.63;;;2.00;99.90;;;;;;4981216;28;20046;-84
2022/01/21 07:25:02;;;;;;;1012.97;425.90;;;2.00;99.90;;;;;;4968042;28;20054;-84
2022/01/21 07:27:28;;;;;;;1014.60;431.00;;;1.90;99.90;;;;;;4973813;28;20057;-84
2022/01/21 07:30:00;;;;;;;1004.60;419.50;;;1.90;99.90;;;;;;4967663;28;20365;-84
2022/01/21 07:32:26;;;;;;;1014.63;427.83;;;1.00;99.90;;;;;;4976541;28;20166;-85
2022/01/21 07:34:55;;;;;;;1016.38;428.23;;;3.50;99.90;;;;;;4971857;28;20063;-84
2022/01/21 07:37:20;;;;;;;1013.90;427.60;;;3.40;99.90;;;;;;4971038;28;20038;-84
2022/01/21 07:39:46;;;;;;;1030.35;451.00;;;1.90;99.90;;;;;;4965823;28;20121;-84
2022/01/21 07:42:12;;;;;;;1005.88;420.92;;;1.90;99.90;;;;;;4963798;28;20035;-88
2022/01/21 07:44:37;;;;;;;997.35;405.55;;;2.00;99.90;;;;;;4968063;28;20117;-87
2022/01/21 07:47:04;;;;;;;1002.80;414.58;;;2.00;99.90;;;;;;4968332;28;20051;-88
2022/01/21 07:49:30;;;;;;;1002.17;412.92;;;2.00;99.90;;;;;;4988604;28;20480;-92
2022/01/21 07:51:56;;;;;;;998.42;412.30;;;2.10;99.90;;;;;;4991796;28;20039;-88
2022/01/21 07:54:22;;;;;;;1012.20;423.85;;;2.10;99.90;;;;;;4973060;28;20335;-90
2022/01/21 07:56:56;;;;;;;996.85;412.48;;;3.50;99.90;;;;;;4970299;28;20035;-89
2022/01/21 07:59:22;;;;;;;1007.65;423.05;;;1.90;99.90;;;;;;4973088;28;20121;-89
2022/01/21 08:01:48;;;;;;;1000.58;416.20;;;2.00;99.90;;;;;;4955232;28;20035;-89
2022/01/21 08:04:13;;;;;;;1006.10;418.45;;;1.80;99.90;;;;;;4959799;28;20510;-89
2022/01/21 08:06:39;;;;;;;1023.05;422.48;;;2.00;99.90;;;;;;4977348;28;20117;-89
2022/01/21 08:09:05;;;;;;;1006.55;418.08;;;2.70;99.90;;;;;;4970705;28;20051;-89
2022/01/21 08:11:37;;;;;;;1009.92;421.40;;;2.10;99.90;;;;;;4974888;28;20063;-89
2022/01/21 08:14:03;;;;;;;999.78;411.90;;;2.10;99.90;;;;;;4990243;28;20682;-88
2022/01/21 08:16:28;;;;;;;996.00;406.25;;;3.90;99.90;;;;;;4973960;28;20141;-90
2022/01/21 08:18:54;;;;;;;1009.60;418.83;;;2.20;99.90;;;;;;4955770;28;20039;-91
2022/01/21 08:21:21;;;;;;;1012.45;421.45;;;2.20;99.90;;;;;;4973999;28;20589;-87
2022/01/21 08:23:53;;;;;;;1009.03;418.00;;;2.00;99.90;;;;;;4978532;28;20060;-88
2022/01/21 08:26:30;;;;;;;1015.35;424.75;;;2.70;99.90;;;;;;4976974;28;20053;-87
2022/01/21 08:29:05;;;;;;;1009.88;417.70;;;2.00;99.90;;;;;;4977778;28;20046;-87
2022/01/21 08:31:32;;;;;;;996.53;406.83;;;2.30;99.90;;;;;;4988578;28;20045;-89
2022/01/21 08:34:01;;;;;;;1010.15;419.63;;;2.30;99.90;;;;;;4981669;28;20049;-90
2022/01/21 08:36:27;;;;;;;1004.97;409.40;;;2.30;99.90;;;;;;4976569;28;20490;-90
2022/01/21 08:38:59;;;;;;;1012.40;418.73;;;4.10;99.90;;;;;;4973681;28;20046;-90
2022/01/21 08:41:25;;;;;;;1138.72;495.92;;;1.30;99.90;;;;;;4971783;28;20062;-91
2022/01/21 08:43:50;;;;;;;1026.38;422.08;;;3.00;99.90;;;;;;4973551;28;20039;-89
2022/01/21 08:46:16;;;;;;;1007.17;408.35;;;2.50;99.90;;;;;;4972748;28;20047;-91
2022/01/21 08:48:44;;;;;;;1011.63;411.27;;;2.60;99.90;;;;;;4976287;28;20051;-92
2022/01/21 08:51:13;;;;;;;1019.70;422.45;;;2.50;99.90;;;;;;4978175;28;20138;-91
2022/01/21 08:53:44;;;;;;;1020.78;417.10;;;3.40;99.90;;;;;;4977514;28;20161;-91
2022/01/21 08:56:13;;;;;;;1026.22;425.73;;;2.70;99.90;;;;;;4977793;28;20054;-92
2022/01/21 08:58:40;;;;;;;1016.00;419.75;;;2.80;99.90;;;;;;4974763;28;20058;-91
2022/01/21 09:01:06;;;;;;;1012.13;412.70;;;2.40;99.90;;;;;;4975445;28;20485;-91
2022/01/21 09:03:42;;;;;;;1020.10;422.98;;;3.40;99.90;;;;;;4980535;28;20054;-89
2022/01/21 09:06:08;;;;;;;1009.90;409.27;;;2.90;99.90;;;;;;4975995;28;20058;-90
2022/01/21 09:08:34;;;;;;;1008.40;407.80;;;4.30;99.90;;;;;;4982145;28;20070;-91
2022/01/21 09:11:04;;;;;;;1010.10;414.60;;;4.50;99.90;;;;;;4977531;28;20042;-91
2022/01/21 09:13:32;;;;;;;1015.72;422.35;;;3.00;99.90;;;;;;4985884;28;20122;-89
2022/01/21 09:16:11;;;;;;;1011.00;413.70;;;3.00;99.90;;;;;;4983744;28;20047;-86
2022/01/21 09:18:52;;;;;;;1015.65;418.70;;;3.00;99.90;;;;;;4975344;28;20043;-91
2022/01/21 09:21:29;;;;;;;1008.97;414.33;;;3.10;99.90;;;;;;4977263;28;20693;-87
2022/01/21 09:23:55;;;;;;;1019.55;420.02;;;2.50;99.90;;;;;;4969197;28;20066;-88
2022/01/21 09:26:24;;;;;;;1022.38;423.38;;;3.20;99.90;;;;;;4968221;28;20047;-89
2022/01/21 09:28:52;;;;;;;1016.78;419.33;;;3.70;99.90;;;;;;4973245;28;20101;-91
2022/01/21 09:31:43;;;;;;;1012.67;412.00;;;3.30;99.90;;;;;;4985043;28;20050;-91
2022/01/21 09:34:09;;;;;;;1016.70;421.98;;;4.00;99.90;;;;;;4981875;28;20062;-91
2022/01/21 09:36:38;;;;;;;1025.50;424.25;;;5.70;99.90;;;;;;4975971;28;20046;-92
2022/01/21 09:39:15;;;;;;;1036.53;421.55;;;5.90;99.90;;;;;;4959946;28;20051;-93
2022/01/21 09:41:42;;;;;;;1030.68;433.80;;;4.10;99.90;;;;;;4970645;28;20070;-94
2022/01/21 09:44:15;;;;;;;1027.70;430.63;;;3.40;99.90;;;;;;4993467;28;20053;-93
2022/01/21 09:46:45;;;;;;;1019.40;418.20;;;2.40;99.90;;;;;;4971681;28;20102;-93
2022/01/21 09:49:30;;;;;;;1032.55;432.25;;;3.40;99.90;;;;;;4976754;28;20047;-91
2022/01/21 09:52:05;;;;;;;1030.88;425.67;;;3.10;99.90;;;;;;4987051;28;20034;-92
2022/01/21 09:54:56;;;;;;;1027.47;424.25;;;4.50;99.90;;;;;;4978790;28;20084;-94
2022/01/21 09:57:23;;;;;;;1030.03;426.40;;;2.60;99.90;;;;;;4975930;28;20061;-93
2022/01/21 09:59:50;;;;;;;1030.22;427.42;;;3.70;99.90;;;;;;4972784;28;20112;-92
2022/01/21 10:02:19;;;;;;;1025.35;423.88;;;4.70;99.90;;;;;;4968923;28;20047;-92
2022/01/21 10:04:52;;;;;;;1041.05;419.17;;;6.50;99.90;;;;;;4973219;28;20051;-91
2022/01/21 10:07:20;;;;;;;1031.63;428.15;;;6.30;99.90;;;;;;4973236;28;20073;-92
2022/01/21 10:09:48;;;;;;;1040.68;433.10;;;3.90;99.90;;;;;;4968258;28;20643;-90
2022/01/21 10:12:14;;;;;;;1042.70;432.83;;;4.90;99.90;;;;;;4969757;28;20104;-93
2022/01/21 10:14:43;;;;;;;1047.68;440.58;;;4.00;99.90;;;;;;4968243;28;20151;-94
2022/01/21 10:17:10;;;;;;;1032.93;422.63;;;4.10;99.90;;;;;;4967915;28;20072;-93
2022/01/21 10:19:48;;;;;;;1039.10;425.10;;;4.10;99.90;;;;;;4970516;28;20224;-95
2022/01/21 10:22:17;;;;;;;1061.50;443.83;;;4.10;99.90;;;;;;4970461;28;20058;-94
2022/01/21 10:25:01;;;;;;;1094.72;464.52;;;4.80;99.90;;;;;;4971158;28;20038;-92
2022/01/21 10:27:32;;;;;;;1072.10;453.88;;;5.50;99.90;;;;;;4969434;28;20047;-94
2022/01/21 10:30:00;;;;;;;1106.57;470.20;;;5.70;99.90;;;;;;4970560;28;20125;-95
2022/01/21 10:32:38;;;;;;;1129.78;485.92;;;8.20;99.90;;;;;;4972590;28;20043;-94
2022/01/21 10:35:05;;;;;;;1126.45;483.65;;;6.70;99.90;;;;;;4981102;28;20083;-94
2022/01/21 10:37:36;;;;;;;1129.30;483.15;;;7.30;99.90;;;;;;4974697;28;20440;-93
2022/01/21 10:40:07;;;;;;;1133.07;485.25;;;7.20;99.90;;;;;;4979460;28;20051;-93
2022/01/21 10:42:33;;;;;;;1127.78;473.30;;;7.60;99.90;;;;;;4978488;28;20568;-92
2022/01/21 10:45:00;;;;;;;1129.82;480.02;;;6.70;99.90;;;;;;4983992;28;20050;-93
2022/01/21 10:47:32;;;;;;;1132.45;482.73;;;6.50;99.90;;;;;;4978504;28;20035;-93
2022/01/21 10:50:11;;;;;;;1127.95;476.30;;;6.50;99.90;;;;;;4975814;28;20105;-91
2022/01/21 10:52:49;;;;;;;1124.55;482.25;;;6.20;99.90;;;;;;4971114;28;20368;-91
2022/01/21 10:55:36;;;;;;;1124.10;478.20;;;6.10;99.90;;;;;;4966861;28;20063;-92
2022/01/21 10:58:13;;;;;;;1120.10;466.27;;;6.10;99.90;;;;;;4973930;28;20487;-92
2022/01/21 11:00:58;;;;;;;1108.50;461.15;;;6.00;99.90;;;;;;4969366;28;20061;-93
2022/01/21 11:03:24;;;;;;;1115.72;468.60;;;6.80;99.90;;;;;;4972693;28;20050;-93
2022/01/21 11:05:54;;;;;;;1113.20;464.50;;;8.10;99.90;;;;;;4966275;28;20141;-89
2022/01/21 11:08:37;;;;;;;1113.82;473.40;;;6.00;99.90;;;;;;4965732;28;20121;-93
2022/01/21 11:11:04;;;;;;;1102.47;463.40;;;6.00;99.90;;;;;;4961813;28;20406;-90
2022/01/21 11:13:31;;;;;;;1114.53;473.10;;;6.60;99.90;;;;;;4969292;28;20158;-91
2022/01/21 11:16:33;;;;;;;1111.32;475.30;;;7.80;99.90;;;;;;4967641;28;20495;-91
2022/01/21 11:19:08;;;;;;;1131.60;481.67;;;6.30;99.90;;;;;;4922237;28;20594;-93
2022/01/21 11:22:00;;;;;;;1127.60;470.00;;;6.80;99.90;;;;;;4971916;28;20544;-93
2022/01/21 11:24:27;;;;;;;1114.75;469.73;;;7.00;99.90;;;;;;4967710;28;20062;-92
2022/01/21 11:27:15;;;;;;;1120.15;474.52;;;7.00;99.90;;;;;;4965732;28;20046;-87
2022/01/21 11:29:43;;;;;;;1130.53;470.38;;;6.90;99.90;;;;;;4971493;28;20101;-91
2022/01/21 11:32:10;;;;;;;1132.72;476.30;;;7.00;99.90;;;;;;4980452;28;20070;-92
2022/01/21 11:34:36;;;;;;;1170.03;507.88;;;7.00;99.90;;;;;;4975488;28;20371;-88
2022/01/21 11:37:03;;;;;;;1163.05;498.00;;;7.30;99.90;;;;;;4971168;28;20054;-90
2022/01/21 11:39:30;;;;;;;1147.57;488.60;;;7.60;99.90;;;;;;4969421;28;20039;-90
2022/01/21 11:41:57;;;;;;;1145.28;487.48;;;7.60;99.90;;;;;;4969252;28;20070;-92
2022/01/21 11:44:26;;;;;;;1107.20;465.55;;;7.40;99.90;;;;;;4973805;28;20039;-88
2022/01/21 11:47:15;;;;;;;1096.80;460.20;;;7.20;99.90;;;;;;4977606;28;20042;-88
2022/01/21 11:49:52;;;;;;;1095.65;457.17;;;7.10;99.90;;;;;;4978707;28;20047;-89
2022/01/21 11:52:18;;;;;;;1092.03;453.27;;;7.00;99.90;;;;;;4975811;28;20541;-91
2022/01/21 11:54:45;;;;;;;1084.45;447.35;;;6.90;99.90;;;;;;4972965;28;20413;-86
2022/01/21 11:57:12;;;;;;;1047.32;434.60;;;6.90;99.90;;;;;;4976044;28;20046;-91
2022/01/21 11:59:51;;;;;;;1004.70;400.65;;;6.80;99.90;;;;;;4980522;28;20035;-89
2022/01/21 12:02:33;;;;;;;1011.22;404.08;;;6.80;99.90;;;;;;4973955;28;20074;-87
2022/01/21 12:05:10;;;;;;;1007.10;402.75;;;6.70;99.90;;;;;;4984978;28;20050;-88
2022/01/21 12:07:44;;;;;;;1004.53;404.52;;;6.60;99.90;;;;;;4981221;28;20042;-88
2022/01/21 12:10:22;;;;;;;999.13;395.55;;;6.60;99.90;;;;;;4977392;28;20161;-90
2022/01/21 12:13:00;;;;;;;995.40;391.80;;;6.60;99.90;;;;;;4977617;28;20415;-89
2022/01/21 12:15:45;;;;;;;991.30;391.45;;;6.70;99.90;;;;;;4974056;28;20055;-91
2022/01/21 12:21:24;;;;;;;982.30;391.73;;;6.70;99.90;;;;;;4967425;28;20046;-88
2022/01/21 12:23:49;;;;;;;978.05;382.73;;;7.60;99.90;;;;;;4976814;28;20039;-87
2022/01/21 12:26:19;;;;;;;985.97;385.23;;;6.70;99.90;;;;;;4977321;28;20050;-90
2022/01/21 12:28:52;;;;;;;964.72;373.95;;;6.70;99.90;;;;;;4971650;28;20035;-90
2022/01/21 12:31:19;;;;;;;977.30;377.45;;;6.70;99.90;;;;;;4974459;28;20466;-87
2022/01/21 12:34:13;;;;;;;968.58;368.20;;;6.70;99.90;;;;;;4970537;28;20615;-86
2022/01/21 12:36:51;;;;;;;965.72;369.75;;;6.70;99.90;;;;;;4971405;28;20084;-89
2022/01/21 12:39:48;;;;;;;982.42;389.58;;;6.60;99.90;;;;;;4971246;28;20038;-87
2022/01/21 12:42:27;;;;;;;986.38;381.15;;;6.60;99.90;;;;;;4970070;28;20129;-84
2022/01/21 12:44:55;;;;;;;983.22;385.77;;;6.60;99.90;;;;;;4975358;28;20047;-89
2022/01/21 12:47:48;;;;;;;981.45;383.40;;;6.60;99.90;;;;;;4970959;28;20074;-86
2022/01/21 12:52:55;;;;;;;978.50;384.15;;;7.00;99.90;;;;;;4970620;28;20107;-88
2022/01/21 12:55:59;;;;;;;972.05;378.67;;;6.60;99.90;;;;;;4962464;28;20047;-88
2022/01/21 12:58:30;;;;;;;978.47;383.45;;;6.60;99.90;;;;;;4970764;28;20047;-90
2022/01/21 13:01:01;;;;;;;981.72;384.65;;;6.50;99.90;;;;;;4986115;28;20050;-91
2022/01/21 13:03:46;;;;;;;987.53;390.40;;;6.50;99.90;;;;;;4957595;28;20051;-88
2022/01/21 13:06:20;;;;;;;969.78;374.58;;;6.60;99.90;;;;;;4975782;28;20578;-90
2022/01/21 13:09:05;;;;;;;962.75;367.95;;;6.50;99.90;;;;;;4953600;29;20190;-87
2022/01/21 13:11:33;;;;;;;966.63;373.08;;;6.60;99.90;;;;;;4978364;28;20039;-88
2022/01/21 13:17:15;;;;;;;967.72;374.00;;;6.60;99.90;;;;;;4979600;28;20050;-90
2022/01/21 13:19:48;;;;;;;979.28;384.75;;;6.60;99.90;;;;;;4974330;28;20396;-92
2022/01/21 13:22:14;;;;;;;986.10;393.05;;;6.60;99.90;;;;;;4968712;28;20511;-89
2022/01/21 13:24:57;;;;;;;990.92;392.02;;;6.60;99.90;;;;;;4976092;28;20176;-92
2022/01/21 13:27:25;;;;;;;988.08;393.58;;;6.60;99.90;;;;;;4972332;28;20070;-91
2022/01/21 13:30:01;;;;;;;985.83;382.42;;;6.60;99.90;;;;;;4973414;28;20042;-88
2022/01/21 13:32:27;;;;;;;987.85;386.13;;;6.60;99.90;;;;;;4965945;28;20220;-88
2022/01/21 13:35:13;;;;;;;981.75;386.75;;;6.60;99.90;;;;;;4973576;28;20456;-88
2022/01/21 13:37:42;;;;;;;996.17;399.73;;;6.60;99.90;;;;;;4974738;28;20046;-89
2022/01/21 13:40:09;;;;;;;980.85;388.73;;;6.50;99.90;;;;;;4974489;28;20133;-90
2022/01/21 13:42:36;;;;;;;1002.45;407.30;;;6.50;99.90;;;;;;4979807;28;20069;-91
2022/01/21 13:45:08;;;;;;;1005.40;409.75;;;6.50;99.90;;;;;;4979044;28;20070;-91
2022/01/21 13:47:44;;;;;;;996.85;400.98;;;6.50;99.90;;;;;;4956868;28;20487;-91
2022/01/21 13:50:14;;;;;;;1010.75;406.92;;;6.40;99.90;;;;;;4952107;29;20039;-90
2022/01/21 13:52:53;;;;;;;1013.67;400.58;;;6.40;99.90;;;;;;4962980;28;20069;-89
2022/01/21 13:55:29;;;;;;;1009.08;407.05;;;6.50;99.90;;;;;;4971837;28;20389;-90
2022/01/21 13:58:04;;;;;;;1014.67;414.52;;;6.50;99.90;;;;;;4970659;28;20145;-90
2022/01/21 14:00:34;;;;;;;1011.03;415.40;;;6.50;99.90;;;;;;4970694;28;20047;-92
2022/01/21 14:03:08;;;;;;;1000.13;399.38;;;6.50;99.90;;;;;;4972067;28;20368;-91
2022/01/21 14:05:49;;;;;;;1007.45;411.23;;;6.50;99.90;;;;;;4953511;28;20090;-86
2022/01/21 14:08:25;;;;;;;1004.20;404.85;;;6.60;99.90;;;;;;4969987;28;20090;-91
2022/01/21 14:11:26;;;;;;;1014.17;413.90;;;6.60;99.90;;;;;;4970879;28;20050;-91
2022/01/21 14:13:59;;;;;;;1014.85;414.33;;;6.60;99.90;;;;;;4969137;28;20077;-90
2022/01/21 14:16:36;;;;;;;1002.80;403.98;;;6.60;99.90;;;;;;4962573;28;20051;-88